sensor_id;sensor_type;location;lat;lon;timestamp;P1;P2;P0
67714;PMS7003;54505;44.022;20.458;2023-02-01T00:02:12;153.00;130.25;76.25
67714;PMS7003;54505;44.022;20.458;2023-02-01T00:04:38;140.25;118.25;72.25
67714;PMS7003;54505;44.022;20.458;2023-02-01T00:07:03;136.25;116.00;74.50
67714;PMS7003;54505;44.022;20.458;2023-02-01T00:09:29;171.00;136.75;83.75
67714;PMS7003;54505;44.022;20.458;2023-02-01T00:11:54;128.75;95.75;63.00
67714;PMS7003;54505;44.022;20.458;2023-02-01T00:14:20;138.75;104.00;63.00
67714;PMS7003;54505;44.022;20.458;2023-02-01T00:16:46;121.25;100.25;58.50
67714;PMS7003;54505;44.022;20.458;2023-02-01T00:19:13;139.25;114.00;67.75
67714;PMS7003;54505;44.022;20.458;2023-02-01T00:21:39;112.50;100.25;66.00
67714;PMS7003;54505;44.022;20.458;2023-02-01T00:24:05;94.75;75.25;50.75
67714;PMS7003;54505;44.022;20.458;2023-02-01T00:29:01;101.75;78.00;50.25
67714;PMS7003;54505;44.022;20.458;2023-02-01T00:31:26;96.75;74.00;48.75
67714;PMS7003;54505;44.022;20.458;2023-02-01T00:33:52;102.25;73.00;47.25
67714;PMS7003;54505;44.022;20.458;2023-02-01T00:36:17;85.50;65.75;43.00
67714;PMS7003;54505;44.022;20.458;2023-02-01T00:38:44;91.25;68.50;45.00
67714;PMS7003;54505;44.022;20.458;2023-02-01T00:41:11;76.50;55.50;40.25
67714;PMS7003;54505;44.022;20.458;2023-02-01T00:43:37;88.50;65.50;42.00
67714;PMS7003;54505;44.022;20.458;2023-02-01T00:46:02;83.00;64.00;41.50
67714;PMS7003;54505;44.022;20.458;2023-02-01T00:48:28;96.25;70.00;44.50
67714;PMS7003;54505;44.022;20.458;2023-02-01T00:50:54;86.50;67.00;43.00
67714;PMS7003;54505;44.022;20.458;2023-02-01T00:53:19;88.50;62.25;40.00
67714;PMS7003;54505;44.022;20.458;2023-02-01T00:55:46;72.75;57.50;37.00
67714;PMS7003;54505;44.022;20.458;2023-02-01T00:58:12;79.75;60.25;40.75
67714;PMS7003;54505;44.022;20.458;2023-02-01T01:00:37;73.00;57.25;34.50
67714;PMS7003;54505;44.022;20.458;2023-02-01T01:03:03;83.75;62.25;39.75
67714;PMS7003;54505;44.022;20.458;2023-02-01T01:05:46;82.50;65.75;40.25
67714;PMS7003;54505;44.022;20.458;2023-02-01T01:08:12;77.00;59.75;38.75
67714;PMS7003;54505;44.022;20.458;2023-02-01T01:10:38;85.25;66.50;41.00
67714;PMS7003;54505;44.022;20.458;2023-02-01T01:13:04;75.75;60.00;39.00
67714;PMS7003;54505;44.022;20.458;2023-02-01T01:15:29;77.25;56.75;39.75
67714;PMS7003;54505;44.022;20.458;2023-02-01T01:17:55;87.25;65.25;43.75
67714;PMS7003;54505;44.022;20.458;2023-02-01T01:20:21;100.75;75.50;49.00
67714;PMS7003;54505;44.022;20.458;2023-02-01T01:22:47;109.50;83.25;52.50
67714;PMS7003;54505;44.022;20.458;2023-02-01T01:25:13;114.00;94.50;57.50
67714;PMS7003;54505;44.022;20.458;2023-02-01T01:27:39;175.50;147.75;87.00
67714;PMS7003;54505;44.022;20.458;2023-02-01T01:30:04;155.00;122.25;68.50
67714;PMS7003;54505;44.022;20.458;2023-02-01T01:32:31;135.75;108.75;67.50
67714;PMS7003;54505;44.022;20.458;2023-02-01T01:34:56;108.00;82.25;52.25
67714;PMS7003;54505;44.022;20.458;2023-02-01T01:37:22;99.25;74.50;46.50
67714;PMS7003;54505;44.022;20.458;2023-02-01T01:39:47;102.00;77.00;48.25
67714;PMS7003;54505;44.022;20.458;2023-02-01T01:42:13;77.75;62.25;41.00
67714;PMS7003;54505;44.022;20.458;2023-02-01T01:47:20;77.00;60.50;38.75
67714;PMS7003;54505;44.022;20.458;2023-02-01T01:49:45;66.50;46.50;35.00
67714;PMS7003;54505;44.022;20.458;2023-02-01T01:52:11;64.75;51.75;35.00
67714;PMS7003;54505;44.022;20.458;2023-02-01T01:54:45;77.00;55.25;34.25
67714;PMS7003;54505;44.022;20.458;2023-02-01T01:57:13;97.75;69.00;44.25
67714;PMS7003;54505;44.022;20.458;2023-02-01T01:59:40;90.25;67.75;44.50
67714;PMS7003;54505;44.022;20.458;2023-02-01T02:02:08;91.00;67.75;44.25
67714;PMS7003;54505;44.022;20.458;2023-02-01T02:04:34;94.75;72.75;44.50
67714;PMS7003;54505;44.022;20.458;2023-02-01T02:07:05;96.75;72.50;46.00
67714;PMS7003;54505;44.022;20.458;2023-02-01T02:09:33;93.00;69.75;45.50
67714;PMS7003;54505;44.022;20.458;2023-02-01T02:11:59;91.50;68.25;44.50
67714;PMS7003;54505;44.022;20.458;2023-02-01T02:14:24;39.50;23.25;0.00
67714;PMS7003;54505;44.022;20.458;2023-02-01T02:19:22;87.00;64.75;40.25
67714;PMS7003;54505;44.022;20.458;2023-02-01T02:22:19;79.25;63.25;40.25
67714;PMS7003;54505;44.022;20.458;2023-02-01T02:35:14;78.25;61.25;39.50
67714;PMS7003;54505;44.022;20.458;2023-02-01T02:37:53;77.50;59.75;38.50
67714;PMS7003;54505;44.022;20.458;2023-02-01T02:40:25;78.50;60.25;40.00
67714;PMS7003;54505;44.022;20.458;2023-02-01T02:43:10;73.75;56.50;37.00
67714;PMS7003;54505;44.022;20.458;2023-02-01T02:46:22;64.00;54.50;38.25
67714;PMS7003;54505;44.022;20.458;2023-02-01T02:52:09;73.25;58.00;38.50
67714;PMS7003;54505;44.022;20.458;2023-02-01T02:54:56;79.67;60.00;38.33
67714;PMS7003;54505;44.022;20.458;2023-02-01T02:57:25;74.75;58.25;39.75
67714;PMS7003;54505;44.022;20.458;2023-02-01T03:00:12;75.75;57.75;37.75
67714;PMS7003;54505;44.022;20.458;2023-02-01T03:02:57;76.00;57.00;37.75
67714;PMS7003;54505;44.022;20.458;2023-02-01T03:05:45;68.50;51.75;37.75
67714;PMS7003;54505;44.022;20.458;2023-02-01T03:08:17;66.50;55.75;37.50
67714;PMS7003;54505;44.022;20.458;2023-02-01T03:13:19;74.75;56.25;35.25
67714;PMS7003;54505;44.022;20.458;2023-02-01T03:18:22;70.00;52.00;33.25
67714;PMS7003;54505;44.022;20.458;2023-02-01T03:20:51;84.50;57.75;34.50
67714;PMS7003;54505;44.022;20.458;2023-02-01T03:23:19;54.50;48.75;33.25
67714;PMS7003;54505;44.022;20.458;2023-02-01T03:25:47;59.75;46.25;32.25
67714;PMS7003;54505;44.022;20.458;2023-02-01T03:28:14;68.75;45.75;24.75
67714;PMS7003;54505;44.022;20.458;2023-02-01T03:30:42;86.00;65.50;40.75
67714;PMS7003;54505;44.022;20.458;2023-02-01T03:33:15;74.00;56.50;39.50
67714;PMS7003;54505;44.022;20.458;2023-02-01T03:43:23;67.50;53.25;35.50
67714;PMS7003;54505;44.022;20.458;2023-02-01T03:45:52;67.00;53.25;34.75
67714;PMS7003;54505;44.022;20.458;2023-02-01T03:48:21;71.50;50.25;33.25
67714;PMS7003;54505;44.022;20.458;2023-02-01T03:50:49;73.75;56.75;37.00
67714;PMS7003;54505;44.022;20.458;2023-02-01T03:53:17;89.25;69.00;44.25
67714;PMS7003;54505;44.022;20.458;2023-02-01T03:55:44;80.00;61.25;39.00
67714;PMS7003;54505;44.022;20.458;2023-02-01T03:58:17;79.75;58.75;39.75
67714;PMS7003;54505;44.022;20.458;2023-02-01T04:00:51;66.50;50.75;29.25
67714;PMS7003;54505;44.022;20.458;2023-02-01T04:03:17;74.50;56.00;36.75
67714;PMS7003;54505;44.022;20.458;2023-02-01T04:05:43;78.00;58.50;39.50
67714;PMS7003;54505;44.022;20.458;2023-02-01T04:08:08;88.50;63.00;40.50
67714;PMS7003;54505;44.022;20.458;2023-02-01T04:10:34;87.50;66.50;42.00
67714;PMS7003;54505;44.022;20.458;2023-02-01T04:13:00;90.75;70.50;47.00
67714;PMS7003;54505;44.022;20.458;2023-02-01T04:15:25;95.00;72.75;45.75
67714;PMS7003;54505;44.022;20.458;2023-02-01T04:17:51;104.50;78.75;50.00
67714;PMS7003;54505;44.022;20.458;2023-02-01T04:20:17;97.75;72.25;45.25
67714;PMS7003;54505;44.022;20.458;2023-02-01T04:22:43;91.50;71.75;45.75
67714;PMS7003;54505;44.022;20.458;2023-02-01T04:25:09;100.75;73.50;47.00
67714;PMS7003;54505;44.022;20.458;2023-02-01T04:27:34;95.50;70.25;47.50
67714;PMS7003;54505;44.022;20.458;2023-02-01T04:30:00;94.00;68.25;45.50
67714;PMS7003;54505;44.022;20.458;2023-02-01T04:32:26;93.00;72.00;45.50
67714;PMS7003;54505;44.022;20.458;2023-02-01T04:34:52;100.50;74.75;47.00
67714;PMS7003;54505;44.022;20.458;2023-02-01T04:37:17;111.00;82.00;52.25
67714;PMS7003;54505;44.022;20.458;2023-02-01T04:39:43;104.25;76.50;49.25
67714;PMS7003;54505;44.022;20.458;2023-02-01T04:42:08;99.25;73.75;47.75
67714;PMS7003;54505;44.022;20.458;2023-02-01T04:44:34;89.00;72.50;47.50
67714;PMS7003;54505;44.022;20.458;2023-02-01T04:47:02;96.75;69.00;43.25
67714;PMS7003;54505;44.022;20.458;2023-02-01T04:49:27;90.50;70.75;44.75
67714;PMS7003;54505;44.022;20.458;2023-02-01T04:51:53;96.50;74.00;47.75
67714;PMS7003;54505;44.022;20.458;2023-02-01T04:54:19;106.50;80.25;51.75
67714;PMS7003;54505;44.022;20.458;2023-02-01T04:56:44;104.75;78.75;50.00
67714;PMS7003;54505;44.022;20.458;2023-02-01T04:59:11;101.00;73.00;42.50
67714;PMS7003;54505;44.022;20.458;2023-02-01T05:01:36;100.50;76.50;45.00
67714;PMS7003;54505;44.022;20.458;2023-02-01T05:04:02;99.50;74.75;47.75
67714;PMS7003;54505;44.022;20.458;2023-02-01T05:06:28;106.75;75.75;46.25
67714;PMS7003;54505;44.022;20.458;2023-02-01T05:08:54;96.75;70.50;46.00
67714;PMS7003;54505;44.022;20.458;2023-02-01T05:11:19;98.50;74.50;49.50
67714;PMS7003;54505;44.022;20.458;2023-02-01T05:14:03;89.75;66.25;43.75
67714;PMS7003;54505;44.022;20.458;2023-02-01T05:16:29;87.75;69.50;46.25
67714;PMS7003;54505;44.022;20.458;2023-02-01T05:18:55;113.50;87.25;54.75
67714;PMS7003;54505;44.022;20.458;2023-02-01T05:21:20;98.00;70.00;48.75
67714;PMS7003;54505;44.022;20.458;2023-02-01T05:23:46;109.00;78.25;49.50
67714;PMS7003;54505;44.022;20.458;2023-02-01T05:26:31;118.00;97.75;59.25
67714;PMS7003;54505;44.022;20.458;2023-02-01T05:28:57;114.75;94.00;58.25
67714;PMS7003;54505;44.022;20.458;2023-02-01T05:31:23;132.75;105.75;67.00
67714;PMS7003;54505;44.022;20.458;2023-02-01T05:33:49;121.75;100.75;60.50
67714;PMS7003;54505;44.022;20.458;2023-02-01T05:36:14;115.50;90.25;54.25
67714;PMS7003;54505;44.022;20.458;2023-02-01T05:38:40;82.25;64.50;40.00
67714;PMS7003;54505;44.022;20.458;2023-02-01T05:41:06;101.00;77.75;48.75
67714;PMS7003;54505;44.022;20.458;2023-02-01T05:43:32;93.25;73.25;45.25
67714;PMS7003;54505;44.022;20.458;2023-02-01T05:45:57;92.75;70.00;45.75
67714;PMS7003;54505;44.022;20.458;2023-02-01T05:48:23;116.50;92.75;56.00
67714;PMS7003;54505;44.022;20.458;2023-02-01T05:50:49;140.50;119.50;73.00
67714;PMS7003;54505;44.022;20.458;2023-02-01T05:53:14;103.25;78.00;49.00
67714;PMS7003;54505;44.022;20.458;2023-02-01T05:55:41;109.75;79.50;55.25
67714;PMS7003;54505;44.022;20.458;2023-02-01T05:58:07;94.25;70.00;46.00
67714;PMS7003;54505;44.022;20.458;2023-02-01T06:00:32;94.00;72.50;47.75
67714;PMS7003;54505;44.022;20.458;2023-02-01T06:02:58;89.75;64.50;41.50
67714;PMS7003;54505;44.022;20.458;2023-02-01T06:05:26;84.25;65.25;42.25
67714;PMS7003;54505;44.022;20.458;2023-02-01T06:07:53;90.25;65.50;44.25
67714;PMS7003;54505;44.022;20.458;2023-02-01T06:10:18;90.50;71.00;46.50
67714;PMS7003;54505;44.022;20.458;2023-02-01T06:12:44;91.00;66.75;41.25
67714;PMS7003;54505;44.022;20.458;2023-02-01T06:15:10;98.00;72.00;48.00
67714;PMS7003;54505;44.022;20.458;2023-02-01T06:17:36;85.25;63.25;43.25
67714;PMS7003;54505;44.022;20.458;2023-02-01T06:20:02;86.50;66.75;43.75
67714;PMS7003;54505;44.022;20.458;2023-02-01T06:22:29;114.00;96.25;62.00
67714;PMS7003;54505;44.022;20.458;2023-02-01T06:24:54;111.00;93.75;60.00
67714;PMS7003;54505;44.022;20.458;2023-02-01T06:27:20;105.00;79.00;50.00
67714;PMS7003;54505;44.022;20.458;2023-02-01T06:29:45;108.00;88.25;57.50
67714;PMS7003;54505;44.022;20.458;2023-02-01T06:32:11;126.50;115.50;76.50
67714;PMS7003;54505;44.022;20.458;2023-02-01T06:34:37;120.25;99.50;61.50
67714;PMS7003;54505;44.022;20.458;2023-02-01T06:37:05;122.00;101.00;64.25
67714;PMS7003;54505;44.022;20.458;2023-02-01T06:39:30;143.75;124.75;83.50
67714;PMS7003;54505;44.022;20.458;2023-02-01T06:41:56;165.25;146.00;88.75
67714;PMS7003;54505;44.022;20.458;2023-02-01T06:44:21;151.50;126.25;75.25
67714;PMS7003;54505;44.022;20.458;2023-02-01T06:46:47;155.50;127.25;75.25
67714;PMS7003;54505;44.022;20.458;2023-02-01T06:49:13;142.50;114.00;61.50
67714;PMS7003;54505;44.022;20.458;2023-02-01T06:51:38;126.50;104.75;61.25
67714;PMS7003;54505;44.022;20.458;2023-02-01T06:54:04;137.50;123.25;69.75
67714;PMS7003;54505;44.022;20.458;2023-02-01T06:56:30;122.50;96.75;59.50
67714;PMS7003;54505;44.022;20.458;2023-02-01T06:58:56;132.00;111.25;70.50
67714;PMS7003;54505;44.022;20.458;2023-02-01T07:01:22;136.25;107.00;65.00
67714;PMS7003;54505;44.022;20.458;2023-02-01T07:03:48;121.75;102.75;62.75
67714;PMS7003;54505;44.022;20.458;2023-02-01T07:06:15;109.00;85.75;52.50
67714;PMS7003;54505;44.022;20.458;2023-02-01T07:08:40;133.00;116.50;73.50
67714;PMS7003;54505;44.022;20.458;2023-02-01T07:11:07;112.50;85.00;47.25
67714;PMS7003;54505;44.022;20.458;2023-02-01T07:13:33;134.25;112.25;70.00
67714;PMS7003;54505;44.022;20.458;2023-02-01T07:16:03;138.00;116.75;71.25
67714;PMS7003;54505;44.022;20.458;2023-02-01T07:18:29;113.50;100.25;62.50
67714;PMS7003;54505;44.022;20.458;2023-02-01T07:20:55;115.50;99.50;53.75
67714;PMS7003;54505;44.022;20.458;2023-02-01T07:23:21;125.50;109.25;67.00
67714;PMS7003;54505;44.022;20.458;2023-02-01T07:25:47;131.00;114.00;70.25
67714;PMS7003;54505;44.022;20.458;2023-02-01T07:28:12;135.00;108.50;64.50
67714;PMS7003;54505;44.022;20.458;2023-02-01T07:30:38;135.25;106.00;65.50
67714;PMS7003;54505;44.022;20.458;2023-02-01T07:33:04;139.50;113.00;69.75
67714;PMS7003;54505;44.022;20.458;2023-02-01T07:35:29;109.50;92.00;66.00
67714;PMS7003;54505;44.022;20.458;2023-02-01T07:37:56;119.50;104.75;63.25
67714;PMS7003;54505;44.022;20.458;2023-02-01T07:40:25;113.00;95.00;56.25
67714;PMS7003;54505;44.022;20.458;2023-02-01T07:42:54;117.75;96.75;64.25
67714;PMS7003;54505;44.022;20.458;2023-02-01T07:45:21;109.50;94.50;53.00
67714;PMS7003;54505;44.022;20.458;2023-02-01T07:47:47;106.25;89.00;57.25
67714;PMS7003;54505;44.022;20.458;2023-02-01T07:50:13;104.75;86.50;54.75
67714;PMS7003;54505;44.022;20.458;2023-02-01T07:52:38;106.75;80.00;56.25
67714;PMS7003;54505;44.022;20.458;2023-02-01T07:55:05;118.00;100.25;59.50
67714;PMS7003;54505;44.022;20.458;2023-02-01T07:57:31;112.00;97.25;64.25
67714;PMS7003;54505;44.022;20.458;2023-02-01T07:59:57;110.25;93.75;59.25
67714;PMS7003;54505;44.022;20.458;2023-02-01T08:02:41;107.75;89.00;57.00
67714;PMS7003;54505;44.022;20.458;2023-02-01T08:05:07;96.50;71.50;47.25
67714;PMS7003;54505;44.022;20.458;2023-02-01T08:07:33;117.50;98.75;61.25
67714;PMS7003;54505;44.022;20.458;2023-02-01T08:09:59;105.25;90.75;55.25
67714;PMS7003;54505;44.022;20.458;2023-02-01T08:12:25;119.25;100.00;63.50
67714;PMS7003;54505;44.022;20.458;2023-02-01T08:14:52;134.25;111.25;68.25
67714;PMS7003;54505;44.022;20.458;2023-02-01T08:17:19;138.00;117.25;77.25
67714;PMS7003;54505;44.022;20.458;2023-02-01T08:19:45;95.00;70.25;44.75
67714;PMS7003;54505;44.022;20.458;2023-02-01T08:22:10;92.00;76.75;47.00
67714;PMS7003;54505;44.022;20.458;2023-02-01T08:24:36;89.50;71.50;45.00
67714;PMS7003;54505;44.022;20.458;2023-02-01T08:27:04;90.50;74.50;46.75
67714;PMS7003;54505;44.022;20.458;2023-02-01T08:29:30;95.00;72.75;46.75
67714;PMS7003;54505;44.022;20.458;2023-02-01T08:31:56;99.00;76.75;50.50
67714;PMS7003;54505;44.022;20.458;2023-02-01T08:34:22;100.00;79.50;49.75
67714;PMS7003;54505;44.022;20.458;2023-02-01T08:36:47;103.50;83.25;49.00
67714;PMS7003;54505;44.022;20.458;2023-02-01T08:39:13;88.50;70.00;44.00
67714;PMS7003;54505;44.022;20.458;2023-02-01T08:41:39;97.00;85.25;53.50
67714;PMS7003;54505;44.022;20.458;2023-02-01T08:44:05;81.75;60.00;37.50
67714;PMS7003;54505;44.022;20.458;2023-02-01T08:46:31;61.75;47.50;31.25
67714;PMS7003;54505;44.022;20.458;2023-02-01T08:48:57;55.25;43.25;29.75
67714;PMS7003;54505;44.022;20.458;2023-02-01T08:51:23;52.25;44.25;29.00
67714;PMS7003;54505;44.022;20.458;2023-02-01T08:53:49;56.25;43.00;27.50
67714;PMS7003;54505;44.022;20.458;2023-02-01T08:56:15;48.25;36.75;24.50
67714;PMS7003;54505;44.022;20.458;2023-02-01T08:58:41;43.75;35.75;24.25
67714;PMS7003;54505;44.022;20.458;2023-02-01T09:01:08;31.50;22.25;17.00
67714;PMS7003;54505;44.022;20.458;2023-02-01T09:03:34;28.25;24.75;16.75
67714;PMS7003;54505;44.022;20.458;2023-02-01T09:06:03;30.75;25.00;18.00
67714;PMS7003;54505;44.022;20.458;2023-02-01T09:08:30;18.00;14.50;11.00
67714;PMS7003;54505;44.022;20.458;2023-02-01T09:11:02;12.25;9.75;5.75
67714;PMS7003;54505;44.022;20.458;2023-02-01T09:13:28;12.00;8.25;5.00
67714;PMS7003;54505;44.022;20.458;2023-02-01T09:15:53;11.50;9.50;6.25
67714;PMS7003;54505;44.022;20.458;2023-02-01T09:18:19;13.25;11.25;7.00
67714;PMS7003;54505;44.022;20.458;2023-02-01T09:20:45;16.25;11.75;8.75
67714;PMS7003;54505;44.022;20.458;2023-02-01T09:23:10;23.25;19.75;11.75
67714;PMS7003;54505;44.022;20.458;2023-02-01T09:25:36;19.75;17.75;11.25
67714;PMS7003;54505;44.022;20.458;2023-02-01T09:28:02;18.00;16.50;12.25
67714;PMS7003;54505;44.022;20.458;2023-02-01T09:30:31;16.25;15.25;11.00
67714;PMS7003;54505;44.022;20.458;2023-02-01T09:32:57;15.00;13.00;10.25
67714;PMS7003;54505;44.022;20.458;2023-02-01T09:35:23;23.25;19.25;13.25
67714;PMS7003;54505;44.022;20.458;2023-02-01T09:37:48;16.25;16.00;10.75
67714;PMS7003;54505;44.022;20.458;2023-02-01T09:40:15;12.50;12.50;7.75
67714;PMS7003;54505;44.022;20.458;2023-02-01T09:45:13;16.00;11.50;8.75
67714;PMS7003;54505;44.022;20.458;2023-02-01T09:47:43;20.50;18.50;12.00
67714;PMS7003;54505;44.022;20.458;2023-02-01T09:55:19;18.25;16.00;11.00
67714;PMS7003;54505;44.022;20.458;2023-02-01T09:57:49;19.50;15.75;12.00
67714;PMS7003;54505;44.022;20.458;2023-02-01T10:00:19;22.00;18.25;11.50
67714;PMS7003;54505;44.022;20.458;2023-02-01T10:02:47;11.50;11.50;7.50
67714;PMS7003;54505;44.022;20.458;2023-02-01T10:05:18;11.00;8.00;5.00
67714;PMS7003;54505;44.022;20.458;2023-02-01T10:07:57;15.00;12.25;9.00
67714;PMS7003;54505;44.022;20.458;2023-02-01T10:13:01;18.75;13.00;7.50
67714;PMS7003;54505;44.022;20.458;2023-02-01T10:18:04;9.50;7.25;6.00
67714;PMS7003;54505;44.022;20.458;2023-02-01T10:23:13;26.50;20.00;12.50
67714;PMS7003;54505;44.022;20.458;2023-02-01T10:25:55;11.25;10.25;6.00
67714;PMS7003;54505;44.022;20.458;2023-02-01T10:28:22;11.50;9.50;6.50
67714;PMS7003;54505;44.022;20.458;2023-02-01T10:30:49;19.25;12.50;7.00
67714;PMS7003;54505;44.022;20.458;2023-02-01T10:33:18;13.50;11.00;7.50
67714;PMS7003;54505;44.022;20.458;2023-02-01T10:35:45;16.00;14.00;10.00
67714;PMS7003;54505;44.022;20.458;2023-02-01T10:38:20;11.75;10.00;7.25
67714;PMS7003;54505;44.022;20.458;2023-02-01T10:40:51;10.25;7.50;5.50
67714;PMS7003;54505;44.022;20.458;2023-02-01T10:43:17;18.50;15.00;13.00
67714;PMS7003;54505;44.022;20.458;2023-02-01T10:45:43;17.75;14.25;10.00
67714;PMS7003;54505;44.022;20.458;2023-02-01T10:48:09;39.00;33.50;24.50
67714;PMS7003;54505;44.022;20.458;2023-02-01T10:55:54;28.50;23.50;17.25
67714;PMS7003;54505;44.022;20.458;2023-02-01T10:58:25;19.00;18.25;12.00
67714;PMS7003;54505;44.022;20.458;2023-02-01T11:00:58;10.25;6.00;2.25
67714;PMS7003;54505;44.022;20.458;2023-02-01T11:05:55;18.50;18.50;10.75
67714;PMS7003;54505;44.022;20.458;2023-02-01T11:08:21;17.50;15.00;9.75
67714;PMS7003;54505;44.022;20.458;2023-02-01T11:10:46;19.25;18.00;12.75
67714;PMS7003;54505;44.022;20.458;2023-02-01T11:13:17;31.50;29.00;20.00
67714;PMS7003;54505;44.022;20.458;2023-02-01T11:15:43;32.00;27.50;20.50
67714;PMS7003;54505;44.022;20.458;2023-02-01T11:18:17;26.25;17.75;12.00
67714;PMS7003;54505;44.022;20.458;2023-02-01T11:20:43;14.75;11.00;7.00
67714;PMS7003;54505;44.022;20.458;2023-02-01T11:23:19;14.00;13.75;10.00
67714;PMS7003;54505;44.022;20.458;2023-02-01T11:25:59;16.00;15.25;11.00
67714;PMS7003;54505;44.022;20.458;2023-02-01T11:28:27;22.25;20.00;12.25
67714;PMS7003;54505;44.022;20.458;2023-02-01T11:30:56;20.00;13.75;11.50
67714;PMS7003;54505;44.022;20.458;2023-02-01T11:33:25;38.50;27.00;16.75
67714;PMS7003;54505;44.022;20.458;2023-02-01T11:35:55;11.25;11.25;6.00
67714;PMS7003;54505;44.022;20.458;2023-02-01T11:38:30;19.00;13.50;10.00
67714;PMS7003;54505;44.022;20.458;2023-02-01T11:43:37;29.25;25.25;15.75
67714;PMS7003;54505;44.022;20.458;2023-02-01T11:46:03;29.75;23.25;14.00
67714;PMS7003;54505;44.022;20.458;2023-02-01T11:48:41;49.00;38.00;26.75
67714;PMS7003;54505;44.022;20.458;2023-02-01T11:54:02;30.50;25.50;14.50
67714;PMS7003;54505;44.022;20.458;2023-02-01T11:59:19;19.50;14.50;10.00
67714;PMS7003;54505;44.022;20.458;2023-02-01T12:06:59;47.75;35.50;22.25
67714;PMS7003;54505;44.022;20.458;2023-02-01T12:12:23;24.50;15.25;12.00
67714;PMS7003;54505;44.022;20.458;2023-02-01T12:15:01;33.00;27.50;17.75
67714;PMS7003;54505;44.022;20.458;2023-02-01T12:20:17;20.50;15.75;10.00
67714;PMS7003;54505;44.022;20.458;2023-02-01T12:25:40;27.75;20.00;11.50
67714;PMS7003;54505;44.022;20.458;2023-02-01T12:36:10;33.50;24.25;15.00
67714;PMS7003;54505;44.022;20.458;2023-02-01T12:38:55;38.00;26.00;17.50
67714;PMS7003;54505;44.022;20.458;2023-02-01T12:41:41;26.50;23.25;16.75
67714;PMS7003;54505;44.022;20.458;2023-02-01T12:44:12;40.50;34.00;24.00
67714;PMS7003;54505;44.022;20.458;2023-02-01T12:46:43;24.00;22.75;14.75
67714;PMS7003;54505;44.022;20.458;2023-02-01T12:49:12;10.00;7.25;5.00
67714;PMS7003;54505;44.022;20.458;2023-02-01T12:51:41;20.75;14.50;10.50
67714;PMS7003;54505;44.022;20.458;2023-02-01T12:56:39;9.00;9.00;5.00
67714;PMS7003;54505;44.022;20.458;2023-02-01T12:59:40;13.50;9.50;6.00
67714;PMS7003;54505;44.022;20.458;2023-02-01T13:02:10;36.00;31.75;22.25
67714;PMS7003;54505;44.022;20.458;2023-02-01T13:04:41;23.50;21.75;13.00
67714;PMS7003;54505;44.022;20.458;2023-02-01T13:07:17;46.00;36.50;22.00
67714;PMS7003;54505;44.022;20.458;2023-02-01T13:09:45;32.00;26.00;16.75
67714;PMS7003;54505;44.022;20.458;2023-02-01T13:12:24;21.75;21.00;14.00
67714;PMS7003;54505;44.022;20.458;2023-02-01T13:17:35;26.75;20.75;14.00
67714;PMS7003;54505;44.022;20.458;2023-02-01T13:22:40;29.50;25.75;17.50
67714;PMS7003;54505;44.022;20.458;2023-02-01T13:25:13;13.25;11.75;10.75
67714;PMS7003;54505;44.022;20.458;2023-02-01T13:27:39;70.25;56.00;42.75
67714;PMS7003;54505;44.022;20.458;2023-02-01T13:30:10;17.75;16.75;12.00
67714;PMS7003;54505;44.022;20.458;2023-02-01T13:42:51;18.75;13.75;9.25
67714;PMS7003;54505;44.022;20.458;2023-02-01T13:45:31;23.00;20.00;12.25
67714;PMS7003;54505;44.022;20.458;2023-02-01T13:47:58;22.25;17.75;12.75
67714;PMS7003;54505;44.022;20.458;2023-02-01T13:56:22;22.50;16.75;10.50
67714;PMS7003;54505;44.022;20.458;2023-02-01T14:06:18;23.50;18.50;12.00
67714;PMS7003;54505;44.022;20.458;2023-02-01T14:16:44;64.50;47.50;29.00
67714;PMS7003;54505;44.022;20.458;2023-02-01T14:19:30;40.25;31.75;21.75
67714;PMS7003;54505;44.022;20.458;2023-02-01T14:22:00;30.75;25.75;17.75
67714;PMS7003;54505;44.022;20.458;2023-02-01T14:24:49;35.00;32.75;22.00
67714;PMS7003;54505;44.022;20.458;2023-02-01T14:27:18;27.50;23.75;16.50
67714;PMS7003;54505;44.022;20.458;2023-02-01T14:29:59;42.25;34.25;24.00
67714;PMS7003;54505;44.022;20.458;2023-02-01T14:32:38;33.50;25.75;18.75
67714;PMS7003;54505;44.022;20.458;2023-02-01T14:35:07;28.25;22.00;15.00
67714;PMS7003;54505;44.022;20.458;2023-02-01T14:37:34;33.50;28.75;18.50
67714;PMS7003;54505;44.022;20.458;2023-02-01T14:42:44;26.25;23.50;17.50
67714;PMS7003;54505;44.022;20.458;2023-02-01T14:47:49;31.75;27.00;16.25
67714;PMS7003;54505;44.022;20.458;2023-02-01T14:53:10;28.75;26.00;17.00
67714;PMS7003;54505;44.022;20.458;2023-02-01T14:58:23;28.75;25.25;15.25
67714;PMS7003;54505;44.022;20.458;2023-02-01T15:00:54;39.75;33.50;19.75
67714;PMS7003;54505;44.022;20.458;2023-02-01T15:05:50;17.25;15.75;11.00
67714;PMS7003;54505;44.022;20.458;2023-02-01T15:08:21;35.00;24.75;17.00
67714;PMS7003;54505;44.022;20.458;2023-02-01T15:10:49;36.50;29.00;21.75
67714;PMS7003;54505;44.022;20.458;2023-02-01T15:13:22;36.75;31.50;21.25
67714;PMS7003;54505;44.022;20.458;2023-02-01T15:18:27;33.00;29.75;20.00
67714;PMS7003;54505;44.022;20.458;2023-02-01T15:20:56;24.50;23.00;16.00
67714;PMS7003;54505;44.022;20.458;2023-02-01T15:23:22;42.00;37.25;24.50
67714;PMS7003;54505;44.022;20.458;2023-02-01T15:25:49;58.00;44.75;27.00
67714;PMS7003;54505;44.022;20.458;2023-02-01T15:28:15;70.50;53.25;33.75
67714;PMS7003;54505;44.022;20.458;2023-02-01T15:30:55;71.75;53.50;34.00
67714;PMS7003;54505;44.022;20.458;2023-02-01T15:33:21;75.00;58.75;37.25
67714;PMS7003;54505;44.022;20.458;2023-02-01T15:35:48;72.00;56.00;35.75
67714;PMS7003;54505;44.022;20.458;2023-02-01T15:40:56;56.00;41.50;26.00
67714;PMS7003;54505;44.022;20.458;2023-02-01T15:43:23;47.25;37.25;23.50
67714;PMS7003;54505;44.022;20.458;2023-02-01T15:45:49;50.75;39.00;26.00
67714;PMS7003;54505;44.022;20.458;2023-02-01T15:48:21;53.75;45.00;30.25
67714;PMS7003;54505;44.022;20.458;2023-02-01T15:50:48;48.25;37.00;23.50
67714;PMS7003;54505;44.022;20.458;2023-02-01T15:53:18;53.75;41.50;27.25
67714;PMS7003;54505;44.022;20.458;2023-02-01T15:55:45;56.25;43.00;27.00
67714;PMS7003;54505;44.022;20.458;2023-02-01T15:58:20;46.75;35.25;24.75
67714;PMS7003;54505;44.022;20.458;2023-02-01T16:00:50;46.25;33.50;14.75
67714;PMS7003;54505;44.022;20.458;2023-02-01T16:03:24;54.25;44.25;28.00
67714;PMS7003;54505;44.022;20.458;2023-02-01T16:05:55;47.25;36.75;22.50